LNI754 WICC-WAHI
Flight info
| Callsign | LNI754 |
|---|---|
| Flight time | 0h 39m |
| Altitude | 25000 |
| Route | CLP |
| Aircraft | B738/M-SDE2E3FGHIRWXY/LB1 |
Departure
| Time | 2026-04-24 02:34 |
|---|---|
| Airport | Husein Sastranegara International Airport (WICC) |
Arrival
| Time | 2026-04-24 03:13 |
|---|---|
| Airport | Yogyakarta International Airport (WAHI) |
| Time | Latitude | Longitude | Altitude | Speed | Heading |
|---|---|---|---|---|---|
| 2026-04-24 01:53 | -6.90289 | 107.57919 | 2414 ft | 0 kts | 189° |
| 2026-04-24 02:27 | -6.90290 | 107.57919 | 2412 ft | 0 kts | 189° |
| 2026-04-24 02:27 | -6.90306 | 107.57914 | 2421 ft | 4 kts | 205° |
| 2026-04-24 02:27 | -6.90317 | 107.57889 | 2419 ft | 4 kts | 264° |
| 2026-04-24 02:28 | -6.90315 | 107.57858 | 2412 ft | 5 kts | 276° |
| 2026-04-24 02:28 | -6.90309 | 107.57814 | 2423 ft | 7 kts | 278° |
| 2026-04-24 02:28 | -6.90301 | 107.57766 | 2412 ft | 7 kts | 279° |
| 2026-04-24 02:28 | -6.90294 | 107.57718 | 2423 ft | 7 kts | 279° |
| 2026-04-24 02:29 | -6.90273 | 107.57671 | 2417 ft | 8 kts | 332° |
| 2026-04-24 02:29 | -6.90222 | 107.57677 | 2422 ft | 1 kts | 19° |
| 2026-04-24 02:29 | -6.90198 | 107.57685 | 2412 ft | 6 kts | 19° |
| 2026-04-24 02:30 | -6.90147 | 107.57703 | 2412 ft | 11 kts | 19° |
| 2026-04-24 02:30 | -6.90078 | 107.57668 | 2423 ft | 15 kts | 289° |
| 2026-04-24 02:30 | -6.90041 | 107.57557 | 2414 ft | 18 kts | 289° |
| 2026-04-24 02:30 | -6.89996 | 107.57426 | 2407 ft | 22 kts | 289° |
| 2026-04-24 02:31 | -6.89938 | 107.57257 | 2414 ft | 27 kts | 289° |
| 2026-04-24 02:31 | -6.89878 | 107.57084 | 2406 ft | 25 kts | 289° |
| 2026-04-24 02:31 | -6.89823 | 107.56922 | 2410 ft | 24 kts | 289° |
| 2026-04-24 02:31 | -6.89778 | 107.56768 | 2411 ft | 23 kts | 279° |
| 2026-04-24 02:32 | -6.89759 | 107.56681 | 2418 ft | 5 kts | 340° |
| 2026-04-24 02:32 | -6.89752 | 107.56710 | 2411 ft | 5 kts | 107° |
| 2026-04-24 02:32 | -6.89754 | 107.56715 | 2411 ft | 0 kts | 109° |
| 2026-04-24 02:33 | -6.89807 | 107.56873 | 2419 ft | 66 kts | 109° |
| 2026-04-24 02:33 | -6.90047 | 107.57569 | 2417 ft | 144 kts | 109° |
| 2026-04-24 02:33 | -6.90450 | 107.58701 | 2754 ft | 184 kts | 109° |
| 2026-04-24 02:34 | -6.90902 | 107.59898 | 3931 ft | 183 kts | 109° |
| 2026-04-24 02:34 | -6.91370 | 107.61187 | 4430 ft | 206 kts | 107° |
| 2026-04-24 02:34 | -6.91919 | 107.62627 | 4620 ft | 232 kts | 108° |
| 2026-04-24 02:34 | -6.92498 | 107.64187 | 5068 ft | 246 kts | 109° |
| 2026-04-24 02:35 | -6.93124 | 107.65866 | 5511 ft | 263 kts | 108° |
| 2026-04-24 02:35 | -6.93778 | 107.67616 | 6247 ft | 267 kts | 108° |
| 2026-04-24 02:35 | -6.94450 | 107.69361 | 7180 ft | 269 kts | 109° |
| 2026-04-24 02:35 | -6.95135 | 107.71150 | 7901 ft | 273 kts | 108° |
| 2026-04-24 02:36 | -6.95835 | 107.72941 | 8381 ft | 279 kts | 110° |
| 2026-04-24 02:36 | -6.96554 | 107.74771 | 9168 ft | 284 kts | 110° |
| 2026-04-24 02:36 | -6.97284 | 107.76653 | 9932 ft | 292 kts | 110° |
| 2026-04-24 02:36 | -6.98021 | 107.78566 | 10743 ft | 294 kts | 109° |
| 2026-04-24 02:37 | -6.98753 | 107.80472 | 11527 ft | 297 kts | 110° |
| 2026-04-24 02:37 | -6.99498 | 107.82425 | 12325 ft | 300 kts | 110° |
| 2026-04-24 02:37 | -7.00248 | 107.84404 | 13092 ft | 305 kts | 110° |
| 2026-04-24 02:37 | -7.01155 | 107.86354 | 13827 ft | 311 kts | 124° |
| 2026-04-24 02:38 | -7.02721 | 107.87875 | 14522 ft | 316 kts | 143° |
| 2026-04-24 02:38 | -7.04553 | 107.89120 | 15211 ft | 320 kts | 146° |
| 2026-04-24 02:38 | -7.06418 | 107.90317 | 15869 ft | 324 kts | 146° |
| 2026-04-24 02:38 | -7.08341 | 107.91528 | 16553 ft | 328 kts | 147° |
| 2026-04-24 02:39 | -7.10212 | 107.92875 | 17098 ft | 336 kts | 133° |
| 2026-04-24 02:39 | -7.11577 | 107.94836 | 17240 ft | 353 kts | 115° |
| 2026-04-24 02:39 | -7.12647 | 107.97137 | 17393 ft | 371 kts | 113° |
| 2026-04-24 02:39 | -7.13725 | 107.99561 | 17702 ft | 383 kts | 113° |
| 2026-04-24 02:40 | -7.14823 | 108.01999 | 18235 ft | 387 kts | 114° |
| 2026-04-24 02:40 | -7.15970 | 108.04476 | 18730 ft | 390 kts | 114° |
| 2026-04-24 02:40 | -7.17149 | 108.06966 | 19236 ft | 393 kts | 115° |
| 2026-04-24 02:40 | -7.18329 | 108.09417 | 19733 ft | 395 kts | 115° |
| 2026-04-24 02:41 | -7.19547 | 108.11920 | 20255 ft | 397 kts | 115° |
| 2026-04-24 02:41 | -7.20782 | 108.14442 | 20682 ft | 402 kts | 115° |
| 2026-04-24 02:41 | -7.22014 | 108.16951 | 21091 ft | 406 kts | 116° |
| 2026-04-24 02:41 | -7.23277 | 108.19521 | 21526 ft | 410 kts | 116° |
| 2026-04-24 02:42 | -7.24549 | 108.22106 | 21986 ft | 412 kts | 116° |
| 2026-04-24 02:42 | -7.25824 | 108.24698 | 22420 ft | 415 kts | 116° |
| 2026-04-24 02:42 | -7.27096 | 108.27285 | 22835 ft | 418 kts | 116° |
| 2026-04-24 02:42 | -7.28396 | 108.29931 | 23213 ft | 422 kts | 116° |
| 2026-04-24 02:43 | -7.29702 | 108.32590 | 23590 ft | 425 kts | 116° |
| 2026-04-24 02:43 | -7.31016 | 108.35267 | 23946 ft | 426 kts | 116° |
| 2026-04-24 02:43 | -7.32333 | 108.37951 | 24313 ft | 428 kts | 116° |
| 2026-04-24 02:43 | -7.33640 | 108.40614 | 24665 ft | 430 kts | 116° |
| 2026-04-24 02:44 | -7.34971 | 108.43326 | 24912 ft | 432 kts | 116° |
| 2026-04-24 02:44 | -7.36309 | 108.46054 | 24894 ft | 434 kts | 116° |
| 2026-04-24 02:44 | -7.37642 | 108.48772 | 24900 ft | 432 kts | 116° |
| 2026-04-24 02:44 | -7.38975 | 108.51490 | 24910 ft | 431 kts | 116° |
| 2026-04-24 02:45 | -7.40305 | 108.54201 | 24922 ft | 432 kts | 116° |
| 2026-04-24 02:45 | -7.41636 | 108.56915 | 24918 ft | 432 kts | 116° |
| 2026-04-24 02:45 | -7.42971 | 108.59639 | 24908 ft | 433 kts | 116° |
| 2026-04-24 02:45 | -7.44302 | 108.62355 | 24908 ft | 433 kts | 116° |
| 2026-04-24 02:46 | -7.45621 | 108.65047 | 24903 ft | 433 kts | 116° |
| 2026-04-24 02:46 | -7.46949 | 108.67758 | 24898 ft | 428 kts | 116° |
| 2026-04-24 02:46 | -7.48263 | 108.70442 | 24885 ft | 424 kts | 116° |
| 2026-04-24 02:46 | -7.49570 | 108.73111 | 24891 ft | 424 kts | 116° |
| 2026-04-24 02:47 | -7.50881 | 108.75787 | 24903 ft | 426 kts | 116° |
| 2026-04-24 02:47 | -7.52180 | 108.78441 | 24904 ft | 427 kts | 116° |
| 2026-04-24 02:47 | -7.53495 | 108.81130 | 24904 ft | 427 kts | 116° |
| 2026-04-24 02:47 | -7.54811 | 108.83819 | 24897 ft | 428 kts | 116° |
| 2026-04-24 02:48 | -7.56129 | 108.86513 | 24894 ft | 428 kts | 116° |
| 2026-04-24 02:48 | -7.57441 | 108.89196 | 24894 ft | 427 kts | 116° |
| 2026-04-24 02:48 | -7.58755 | 108.91884 | 24895 ft | 426 kts | 116° |
| 2026-04-24 02:48 | -7.60066 | 108.94567 | 24895 ft | 426 kts | 116° |
| 2026-04-24 02:49 | -7.61376 | 108.97245 | 24885 ft | 426 kts | 116° |
| 2026-04-24 02:49 | -7.62684 | 108.99921 | 24886 ft | 425 kts | 116° |
| 2026-04-24 02:49 | -7.63985 | 109.02599 | 24883 ft | 425 kts | 115° |
| 2026-04-24 02:49 | -7.64844 | 109.05438 | 24875 ft | 425 kts | 97° |
| 2026-04-24 02:50 | -7.65178 | 109.08401 | 24890 ft | 425 kts | 96° |
| 2026-04-24 02:50 | -7.65501 | 109.11326 | 24886 ft | 425 kts | 96° |
| 2026-04-24 02:50 | -7.65839 | 109.14291 | 24879 ft | 425 kts | 97° |
| 2026-04-24 02:50 | -7.66189 | 109.17263 | 24878 ft | 426 kts | 97° |
| 2026-04-24 02:51 | -7.66550 | 109.20241 | 24877 ft | 426 kts | 97° |
| 2026-04-24 02:51 | -7.66910 | 109.23168 | 24882 ft | 426 kts | 97° |
| 2026-04-24 02:51 | -7.67279 | 109.26136 | 24878 ft | 427 kts | 97° |
| 2026-04-24 02:51 | -7.67650 | 109.29107 | 24878 ft | 427 kts | 97° |
| 2026-04-24 02:52 | -7.68025 | 109.32109 | 24589 ft | 436 kts | 97° |
| 2026-04-24 02:52 | -7.68404 | 109.35147 | 24083 ft | 435 kts | 97° |
| 2026-04-24 02:52 | -7.68779 | 109.38165 | 23611 ft | 430 kts | 97° |
| 2026-04-24 02:52 | -7.69150 | 109.41146 | 23077 ft | 426 kts | 97° |
| 2026-04-24 02:53 | -7.69517 | 109.44100 | 22518 ft | 423 kts | 97° |
| 2026-04-24 02:53 | -7.69876 | 109.46998 | 21981 ft | 420 kts | 97° |
| 2026-04-24 02:53 | -7.70239 | 109.49919 | 21441 ft | 418 kts | 97° |
| 2026-04-24 02:53 | -7.70598 | 109.52816 | 20916 ft | 414 kts | 97° |
| 2026-04-24 02:54 | -7.70955 | 109.55694 | 20400 ft | 410 kts | 97° |
| 2026-04-24 02:54 | -7.71308 | 109.58547 | 19889 ft | 407 kts | 96° |
| 2026-04-24 02:54 | -7.71658 | 109.61373 | 19385 ft | 404 kts | 96° |
| 2026-04-24 02:54 | -7.72000 | 109.64136 | 18895 ft | 400 kts | 96° |
| 2026-04-24 02:55 | -7.72344 | 109.66917 | 18405 ft | 397 kts | 96° |
| 2026-04-24 02:55 | -7.72684 | 109.69666 | 17887 ft | 394 kts | 96° |
| 2026-04-24 02:55 | -7.73021 | 109.72402 | 17361 ft | 390 kts | 96° |
| 2026-04-24 02:55 | -7.73353 | 109.75089 | 17016 ft | 382 kts | 96° |
| 2026-04-24 02:56 | -7.73678 | 109.77727 | 16688 ft | 375 kts | 96° |
| 2026-04-24 02:56 | -7.73998 | 109.80313 | 16370 ft | 368 kts | 96° |
| 2026-04-24 02:56 | -7.74310 | 109.82851 | 16054 ft | 361 kts | 96° |
| 2026-04-24 02:56 | -7.74613 | 109.85313 | 15740 ft | 356 kts | 96° |
| 2026-04-24 02:57 | -7.74916 | 109.87771 | 15433 ft | 350 kts | 96° |
| 2026-04-24 02:57 | -7.75214 | 109.90194 | 15129 ft | 343 kts | 96° |
| 2026-04-24 02:57 | -7.75812 | 109.92489 | 14792 ft | 337 kts | 116° |
| 2026-04-24 02:57 | -7.77216 | 109.94338 | 14484 ft | 330 kts | 138° |
| 2026-04-24 02:58 | -7.79144 | 109.95527 | 14199 ft | 324 kts | 159° |
| 2026-04-24 02:58 | -7.81326 | 109.96017 | 13912 ft | 318 kts | 175° |
| 2026-04-24 02:58 | -7.83492 | 109.95823 | 13616 ft | 316 kts | 192° |
| 2026-04-24 02:58 | -7.85619 | 109.95287 | 13303 ft | 314 kts | 194° |
| 2026-04-24 02:59 | -7.87724 | 109.94698 | 12966 ft | 313 kts | 195° |
| 2026-04-24 02:59 | -7.89820 | 109.94108 | 12613 ft | 312 kts | 195° |
| 2026-04-24 02:59 | -7.91913 | 109.93526 | 12273 ft | 311 kts | 194° |
| 2026-04-24 02:59 | -7.94002 | 109.92956 | 11956 ft | 310 kts | 194° |
| 2026-04-24 03:00 | -7.96072 | 109.92396 | 11633 ft | 305 kts | 194° |
| 2026-04-24 03:00 | -7.98108 | 109.91850 | 11315 ft | 300 kts | 194° |
| 2026-04-24 03:00 | -8.00088 | 109.91320 | 11012 ft | 297 kts | 194° |
| 2026-04-24 03:00 | -8.02069 | 109.90790 | 10742 ft | 293 kts | 194° |
| 2026-04-24 03:01 | -8.04034 | 109.90268 | 10482 ft | 290 kts | 194° |
| 2026-04-24 03:01 | -8.05986 | 109.89754 | 10229 ft | 289 kts | 194° |
| 2026-04-24 03:01 | -8.07925 | 109.89243 | 9988 ft | 286 kts | 194° |
| 2026-04-24 03:01 | -8.09847 | 109.88737 | 9725 ft | 285 kts | 194° |
| 2026-04-24 03:02 | -8.11757 | 109.88234 | 9453 ft | 283 kts | 194° |
| 2026-04-24 03:02 | -8.13665 | 109.87736 | 9174 ft | 281 kts | 191° |
| 2026-04-24 03:02 | -8.15588 | 109.87730 | 8875 ft | 277 kts | 162° |
| 2026-04-24 03:02 | -8.16738 | 109.88244 | 8704 ft | 272 kts | 143° |
| 2026-04-24 03:03 | -8.18339 | 109.90094 | 8390 ft | 261 kts | 112° |
| 2026-04-24 03:03 | -8.18874 | 109.91820 | 8160 ft | 255 kts | 100° |
| 2026-04-24 03:03 | -8.19128 | 109.92997 | 7999 ft | 254 kts | 99° |
| 2026-04-24 03:03 | -8.19489 | 109.94711 | 7777 ft | 251 kts | 99° |
| 2026-04-24 03:04 | -8.19762 | 109.96427 | 7595 ft | 241 kts | 85° |
| 2026-04-24 03:04 | -8.19299 | 109.97978 | 7409 ft | 227 kts | 56° |
| 2026-04-24 03:04 | -8.18258 | 109.99102 | 7233 ft | 216 kts | 36° |
| 2026-04-24 03:04 | -8.16937 | 109.99752 | 7002 ft | 210 kts | 15° |
| 2026-04-24 03:05 | -8.15519 | 110.00066 | 6782 ft | 205 kts | 13° |
| 2026-04-24 03:05 | -8.14141 | 110.00369 | 6548 ft | 201 kts | 13° |
| 2026-04-24 03:05 | -8.12789 | 110.00678 | 6316 ft | 197 kts | 18° |
| 2026-04-24 03:05 | -8.11691 | 110.01446 | 6059 ft | 194 kts | 50° |
| 2026-04-24 03:06 | -8.10854 | 110.02503 | 5791 ft | 196 kts | 49° |
| 2026-04-24 03:06 | -8.09981 | 110.03575 | 5508 ft | 198 kts | 49° |
| 2026-04-24 03:06 | -8.09102 | 110.04652 | 5246 ft | 199 kts | 49° |
| 2026-04-24 03:06 | -8.08226 | 110.05730 | 4976 ft | 198 kts | 49° |
| 2026-04-24 03:07 | -8.07365 | 110.06793 | 4700 ft | 197 kts | 49° |
| 2026-04-24 03:07 | -8.06497 | 110.07866 | 4401 ft | 197 kts | 49° |
| 2026-04-24 03:07 | -8.05636 | 110.08929 | 4111 ft | 194 kts | 50° |
| 2026-04-24 03:07 | -8.04786 | 110.09978 | 3816 ft | 193 kts | 50° |
| 2026-04-24 03:08 | -8.03940 | 110.11022 | 3517 ft | 192 kts | 50° |
| 2026-04-24 03:08 | -8.02262 | 110.13100 | 2939 ft | 189 kts | 50° |
| 2026-04-24 03:08 | -8.01329 | 110.13986 | 2680 ft | 184 kts | 33° |
| 2026-04-24 03:09 | -8.00277 | 110.14680 | 2432 ft | 178 kts | 34° |
| 2026-04-24 03:09 | -7.99287 | 110.15368 | 2276 ft | 165 kts | 36° |
| 2026-04-24 03:09 | -7.98357 | 110.16022 | 2269 ft | 164 kts | 35° |
| 2026-04-24 03:09 | -7.97396 | 110.16677 | 2293 ft | 167 kts | 28° |
| 2026-04-24 03:10 | -7.96246 | 110.16847 | 2232 ft | 177 kts | 348° |
| 2026-04-24 03:10 | -7.95232 | 110.16142 | 1993 ft | 181 kts | 309° |
| 2026-04-24 03:10 | -7.94517 | 110.15103 | 1754 ft | 181 kts | 308° |
| 2026-04-24 03:10 | -7.93788 | 110.14066 | 1450 ft | 179 kts | 308° |
| 2026-04-24 03:11 | -7.93163 | 110.13058 | 1264 ft | 163 kts | 294° |
| 2026-04-24 03:11 | -7.92778 | 110.12028 | 1025 ft | 151 kts | 289° |
| 2026-04-24 03:11 | -7.92430 | 110.11036 | 852 ft | 149 kts | 289° |
| 2026-04-24 03:11 | -7.92093 | 110.10028 | 696 ft | 155 kts | 288° |
| 2026-04-24 03:12 | -7.91732 | 110.09018 | 488 ft | 150 kts | 290° |
| 2026-04-24 03:12 | -7.91371 | 110.08029 | 299 ft | 152 kts | 289° |
| 2026-04-24 03:12 | -7.91009 | 110.07025 | 102 ft | 152 kts | 289° |
| 2026-04-24 03:12 | -7.90663 | 110.06082 | 38 ft | 130 kts | 291° |
| 2026-04-24 03:13 | -7.90417 | 110.05415 | 37 ft | 58 kts | 292° |
| 2026-04-24 03:13 | -7.90256 | 110.05205 | 34 ft | 24 kts | 320° |
| 2026-04-24 03:13 | -7.90170 | 110.05234 | 33 ft | 17 kts | 108° |
| 2026-04-24 03:13 | -7.90212 | 110.05344 | 37 ft | 16 kts | 111° |
| 2026-04-24 03:14 | -7.90250 | 110.05450 | 38 ft | 16 kts | 110° |
| 2026-04-24 03:14 | -7.90288 | 110.05552 | 38 ft | 16 kts | 110° |
| 2026-04-24 03:14 | -7.90327 | 110.05658 | 42 ft | 16 kts | 110° |
| 2026-04-24 03:14 | -7.90330 | 110.05748 | 41 ft | 12 kts | 45° |
| 2026-04-24 03:15 | -7.90240 | 110.05782 | 33 ft | 13 kts | 21° |
| 2026-04-24 03:15 | -7.90211 | 110.05851 | 35 ft | 13 kts | 110° |
| 2026-04-24 03:15 | -7.90243 | 110.05933 | 35 ft | 12 kts | 111° |
| 2026-04-24 03:15 | -7.90240 | 110.06002 | 33 ft | 9 kts | 43° |
| 2026-04-24 03:16 | -7.90186 | 110.06025 | 34 ft | 8 kts | 20° |
| 2026-04-24 03:16 | -7.90168 | 110.06032 | 34 ft | 1 kts | 20° |
| 2026-04-24 03:16 | -7.90165 | 110.06033 | 34 ft | 1 kts | 20° |
| 2026-04-24 03:16 | -7.90164 | 110.06034 | 34 ft | 0 kts | 20° |